Slate Run, Pennsylvania
Current Conditions -  °F | °C
As of 2:15 PM on Saturday 25 Oct 2014 (Local Time) from KN38 Reporting Station
Scattered Clouds Scattered Clouds  
Wind Chill: 63°   Ceiling: Unl
Heat Index: 63°   Visibility: 10mi
Dew Point: 43°   Wind: 15mph
Humidity: 48%   Direction: 230°SW
Pressure: 29.72"   Gusts: 22mph
Location:  41.47°N, 77.5°W
Report Text: KN38 251815Z AUTO 23013G19KT 10SM FEW060 SCT075 SCT085 17/06 A2972 RMK AO2
Loading
Personal Weather Stations






























Interactive Weather Map
Tropical Storm Tracking
New forecast layout! Learn more

10-Day Weather Forecast

Advertisements
Track Severe Weather on mobile